Time;durP1;ratioP1;P1;durP2;ratioP2;P2;SDS_P1;SDS_P2;PMS_P1;PMS_P2;Temp;Humidity;BMP_temperature;BMP_pressure;BME280_temperature;BME280_humidity;BME280_pressure;Samples;Min_cycle;Max_cycle;Signal;HPM_P1;HPM_P2
2023/07/21 00:02:24;;;;;;;8.15;5.70;;;14.30;99.90;;;;;;4975099;28;20267;-61
2023/07/21 00:04:50;;;;;;;13.82;6.35;;;14.30;99.90;;;;;;4975058;28;20218;-59
2023/07/21 00:07:16;;;;;;;8.48;6.03;;;14.20;99.90;;;;;;4975175;28;20240;-60
2023/07/21 00:09:42;;;;;;;10.35;6.30;;;14.30;99.90;;;;;;4975048;28;20172;-60
2023/07/21 00:12:08;;;;;;;12.10;6.65;;;14.30;99.90;;;;;;4974837;28;20260;-60
2023/07/21 00:14:34;;;;;;;9.60;6.43;;;;;;;;;;4974867;28;20271;-61
2023/07/21 00:17:02;;;;;;;12.95;7.07;;;14.20;99.90;;;;;;4974908;28;20168;-60
2023/07/21 00:19:27;;;;;;;13.38;7.38;;;14.00;99.90;;;;;;4974808;28;20191;-59
2023/07/21 00:21:53;;;;;;;12.32;6.97;;;14.10;99.90;;;;;;4974771;28;20172;-60
2023/07/21 00:24:20;;;;;;;11.18;6.97;;;;;;;;;;4974691;28;20724;-59
2023/07/21 00:26:46;;;;;;;9.80;6.70;;;;;;;;;;4973576;28;20180;-60
2023/07/21 00:29:12;;;;;;;14.23;7.20;;;14.00;99.90;;;;;;4974282;28;20666;-60
2023/07/21 00:31:39;;;;;;;11.80;6.85;;;;;;;;;;4974616;28;20255;-60
2023/07/21 00:34:05;;;;;;;12.85;6.82;;;14.00;99.90;;;;;;4961134;28;20211;-59
2023/07/21 00:36:31;;;;;;;11.13;6.80;;;13.70;99.90;;;;;;4974210;28;20202;-59
2023/07/21 00:38:58;;;;;;;14.90;7.22;;;;;;;;;;4974519;28;20642;-60
2023/07/21 00:41:25;;;;;;;10.63;6.32;;;14.00;99.90;;;;;;4974494;28;20200;-60
2023/07/21 00:43:51;;;;;;;15.75;6.95;;;;;;;;;;4974294;28;20691;-59
2023/07/21 00:46:17;;;;;;;11.43;6.97;;;14.00;99.90;;;;;;4973562;28;20199;-60
2023/07/21 00:48:43;;;;;;;10.88;7.07;;;13.80;99.90;;;;;;4973675;28;20223;-60
2023/07/21 00:51:10;;;;;;;11.77;7.10;;;13.90;99.90;;;;;;4973569;28;20205;-61
2023/07/21 00:53:36;;;;;;;12.02;7.25;;;13.80;99.90;;;;;;4974267;28;20176;-61
2023/07/21 00:56:02;;;;;;;12.15;7.07;;;;;;;;;;4974267;28;20698;-61
2023/07/21 00:58:28;;;;;;;13.13;7.05;;;;;;;;;;4973482;28;20553;-61
2023/07/21 01:00:54;;;;;;;17.65;6.85;;;;;;;;;;4973690;28;20181;-61
2023/07/21 01:03:20;;;;;;;14.75;7.40;;;13.60;99.90;;;;;;4973530;28;20294;-61
2023/07/21 01:05:49;;;;;;;14.15;7.72;;;13.50;99.90;;;;;;4973580;28;20271;-61
2023/07/21 01:08:16;;;;;;;11.95;7.10;;;13.50;99.90;;;;;;4973921;28;20235;-61
2023/07/21 01:10:43;;;;;;;12.23;7.35;;;13.50;99.90;;;;;;4973830;28;20173;-60
2023/07/21 01:13:11;;;;;;;13.10;7.70;;;13.40;99.90;;;;;;4973484;28;20165;-60
2023/07/21 01:15:43;;;;;;;14.43;7.55;;;13.30;99.90;;;;;;4973728;28;20180;-61
2023/07/21 01:18:12;;;;;;;12.00;7.60;;;13.40;99.90;;;;;;4973801;28;20172;-60
2023/07/21 01:20:38;;;;;;;15.50;8.10;;;13.30;99.90;;;;;;4973656;28;20188;-61
2023/07/21 01:23:30;;;;;;;13.07;8.05;;;13.20;99.90;;;;;;4973463;28;20200;-61
2023/07/21 01:25:57;;;;;;;10.85;7.22;;;13.10;99.90;;;;;;4973580;28;20273;-60
2023/07/21 01:28:24;;;;;;;17.50;7.90;;;13.10;99.90;;;;;;4973486;28;20606;-60
2023/07/21 01:30:53;;;;;;;11.20;7.20;;;13.20;99.90;;;;;;4973526;28;20534;-60
2023/07/21 01:33:20;;;;;;;13.50;7.75;;;13.10;99.90;;;;;;4973349;28;20303;-61
2023/07/21 01:35:50;;;;;;;14.40;7.70;;;13.10;99.90;;;;;;4973399;28;20164;-61
2023/07/21 01:38:17;;;;;;;15.95;7.75;;;13.00;99.90;;;;;;4972962;28;20179;-61
2023/07/21 01:40:44;;;;;;;12.60;8.07;;;13.00;99.90;;;;;;4973416;28;20168;-60
2023/07/21 01:43:11;;;;;;;11.60;7.47;;;13.00;99.90;;;;;;4973164;28;20212;-58
2023/07/21 01:45:38;;;;;;;14.88;7.63;;;12.90;99.90;;;;;;4973266;28;20164;-60
2023/07/21 01:48:04;;;;;;;15.37;8.17;;;12.80;99.90;;;;;;4973048;28;20238;-60
2023/07/21 01:50:31;;;;;;;11.68;7.78;;;12.90;99.90;;;;;;4973166;28;20250;-60
2023/07/21 01:53:02;;;;;;;12.48;7.78;;;12.90;99.90;;;;;;4973271;28;20227;-59
2023/07/21 01:55:41;;;;;;;11.80;8.00;;;12.90;99.90;;;;;;4973032;28;20172;-59
2023/07/21 01:58:10;;;;;;;16.33;7.93;;;12.90;99.90;;;;;;4972947;28;20593;-59
2023/07/21 02:00:40;;;;;;;16.92;7.90;;;12.90;99.90;;;;;;4972751;28;20184;-61
2023/07/21 02:03:07;;;;;;;13.13;7.45;;;;;;;;;;4972808;28;20211;-61
2023/07/21 02:05:33;;;;;;;15.68;7.75;;;12.80;99.90;;;;;;4972925;28;20203;-62
2023/07/21 02:07:59;;;;;;;14.07;8.07;;;12.80;99.90;;;;;;4972566;28;20643;-59
2023/07/21 02:10:25;;;;;;;13.13;8.15;;;12.80;99.90;;;;;;4972477;28;20275;-60
2023/07/21 02:12:50;;;;;;;14.60;7.30;;;14.60;99.90;;;;;;4972390;28;20172;-59
2023/07/21 02:15:17;;;;;;;15.38;8.10;;;12.70;99.90;;;;;;4972689;28;20179;-59
2023/07/21 02:17:43;;;;;;;15.83;7.87;;;12.70;99.90;;;;;;4972449;28;20235;-60
2023/07/21 02:20:09;;;;;;;14.90;8.23;;;12.40;99.90;;;;;;4979459;28;20179;-60
2023/07/21 02:22:40;;;;;;;13.60;8.00;;;12.80;99.90;;;;;;4992001;28;20258;-61
2023/07/21 02:25:09;;;;;;;14.27;8.07;;;12.60;99.90;;;;;;4973236;28;20196;-60
2023/07/21 02:27:36;;;;;;;16.13;8.40;;;12.50;99.90;;;;;;4972578;28;20184;-61
2023/07/21 02:30:03;;;;;;;15.90;8.53;;;12.50;99.90;;;;;;4972514;28;20279;-60
2023/07/21 02:32:28;;;;;;;16.63;8.50;;;12.50;99.90;;;;;;4972457;28;20168;-60
2023/07/21 02:34:56;;;;;;;14.80;7.87;;;12.40;99.90;;;;;;4969845;28;20195;-60
2023/07/21 02:37:22;;;;;;;13.20;8.20;;;12.40;99.90;;;;;;4963638;28;20173;-60
2023/07/21 02:39:47;;;;;;;13.57;8.20;;;12.40;99.90;;;;;;4953005;28;20198;-60
2023/07/21 02:42:13;;;;;;;13.93;7.93;;;12.50;99.90;;;;;;4966088;28;20184;-59
2023/07/21 02:44:38;;;;;;;16.77;7.73;;;12.30;99.90;;;;;;4972374;28;20230;-59
2023/07/21 02:47:06;;;;;;;16.53;8.10;;;12.20;99.90;;;;;;4972095;28;20581;-60
2023/07/21 02:49:32;;;;;;;13.87;7.57;;;12.30;99.90;;;;;;4971947;28;20202;-60
2023/07/21 02:51:58;;;;;;;14.23;8.53;;;12.30;99.90;;;;;;4970481;28;20183;-60
2023/07/21 02:54:24;;;;;;;16.03;8.53;;;12.40;99.90;;;;;;4959004;28;20541;-61
2023/07/21 02:56:50;;;;;;;14.83;7.97;;;;;;;;;;4952862;28;20169;-59
2023/07/21 02:59:16;;;;;;;16.37;8.97;;;12.20;99.90;;;;;;4952800;28;20255;-60
2023/07/21 03:01:54;;;;;;;14.40;8.37;;;12.20;99.90;;;;;;4952805;28;20263;-60
2023/07/21 03:04:31;;;;;;;12.90;7.57;;;12.10;99.90;;;;;;4952616;28;20239;-60
2023/07/21 03:06:57;;;;;;;13.90;8.17;;;11.90;99.90;;;;;;4971209;28;20184;-60
2023/07/21 03:09:23;;;;;;;15.57;8.17;;;12.00;99.90;;;;;;4972021;28;20184;-59
2023/07/21 03:11:48;;;;;;;14.63;8.30;;;11.90;99.90;;;;;;4971198;28;20184;-60
2023/07/21 03:14:14;;;;;;;13.40;8.43;;;11.90;99.90;;;;;;4972039;28;20665;-60
2023/07/21 03:16:40;;;;;;;17.07;8.07;;;11.90;99.90;;;;;;4971805;28;20713;-60
2023/07/21 03:19:07;;;;;;;17.30;8.43;;;12.00;99.90;;;;;;4971760;28;20187;-59
2023/07/21 03:21:32;;;;;;;16.43;8.03;;;12.00;99.90;;;;;;4971411;28;20180;-59
2023/07/21 03:23:58;;;;;;;14.07;8.23;;;11.90;99.90;;;;;;4971525;28;20289;-60
2023/07/21 03:26:27;;;;;;;15.83;8.90;;;11.90;99.90;;;;;;4970974;28;20234;-60
2023/07/21 03:28:54;;;;;;;13.77;8.13;;;11.90;99.90;;;;;;4970741;28;20175;-60
2023/07/21 03:31:19;;;;;;;15.03;7.87;;;11.90;99.90;;;;;;4972340;28;20180;-60
2023/07/21 03:33:45;;;;;;;17.47;8.73;;;11.90;99.90;;;;;;4971865;28;20544;-61
2023/07/21 03:36:11;;;;;;;12.47;7.83;;;11.80;99.90;;;;;;4971772;28;20647;-61
2023/07/21 03:38:36;;;;;;;15.53;7.73;;;11.80;99.90;;;;;;4971506;28;20195;-60
2023/07/21 03:41:07;;;;;;;14.67;8.30;;;11.80;99.90;;;;;;4971544;28;20176;-59
2023/07/21 03:43:33;;;;;;;13.43;7.87;;;11.70;99.90;;;;;;4971518;28;20298;-60
2023/07/21 03:46:00;;;;;;;13.63;8.37;;;11.80;99.90;;;;;;4971480;28;20211;-59
2023/07/21 03:48:27;;;;;;;16.70;8.67;;;11.50;99.90;;;;;;4971610;28;20736;-60
2023/07/21 03:50:57;;;;;;;18.77;8.87;;;11.80;99.90;;;;;;4971184;28;20188;-59
2023/07/21 03:53:24;;;;;;;15.13;8.30;;;11.70;99.90;;;;;;4971419;28;20180;-60
2023/07/21 03:55:50;;;;;;;13.47;7.87;;;11.80;99.90;;;;;;4955939;28;20176;-60
2023/07/21 03:58:16;;;;;;;12.77;8.37;;;11.70;99.90;;;;;;4970840;28;20184;-60
2023/07/21 04:00:45;;;;;;;14.63;8.53;;;11.80;99.90;;;;;;4971399;28;20669;-60
2023/07/21 04:03:12;;;;;;;14.10;8.53;;;11.70;99.90;;;;;;4974352;28;20228;-59
2023/07/21 04:05:37;;;;;;;13.93;8.57;;;11.70;99.90;;;;;;4974978;28;20250;-59
2023/07/21 04:08:04;;;;;;;20.67;8.10;;;11.70;99.90;;;;;;4974740;28;20272;-59
2023/07/21 04:10:32;;;;;;;15.60;8.53;;;11.70;99.90;;;;;;4974821;28;20662;-59
2023/07/21 04:12:58;;;;;;;13.73;8.43;;;11.70;99.90;;;;;;4974956;28;20189;-59
2023/07/21 04:15:27;;;;;;;13.87;8.67;;;11.70;99.90;;;;;;4974645;28;20187;-58
2023/07/21 04:17:53;;;;;;;16.07;8.47;;;11.70;99.90;;;;;;4955585;28;20626;-58
2023/07/21 04:20:20;;;;;;;16.13;8.73;;;11.70;99.90;;;;;;4962371;28;20193;-59
2023/07/21 04:22:45;;;;;;;13.63;8.37;;;11.70;99.90;;;;;;4974757;28;20203;-56
2023/07/21 04:25:12;;;;;;;15.77;8.27;;;11.80;99.90;;;;;;4974755;28;20231;-58
2023/07/21 04:27:38;;;;;;;16.30;8.53;;;11.80;99.90;;;;;;4974836;28;20179;-59
2023/07/21 04:30:04;;;;;;;14.33;8.67;;;11.80;99.90;;;;;;4974706;28;20176;-59
2023/07/21 04:32:33;;;;;;;15.80;8.10;;;11.70;99.90;;;;;;4974381;28;20721;-59
2023/07/21 04:34:59;;;;;;;12.90;8.23;;;11.60;99.90;;;;;;4974531;28;20205;-59
2023/07/21 04:37:25;;;;;;;16.37;8.90;;;11.50;99.90;;;;;;4974610;28;20728;-59
2023/07/21 04:39:51;;;;;;;16.40;8.60;;;11.50;99.90;;;;;;4974716;28;20247;-59
2023/07/21 04:42:17;;;;;;;17.00;8.53;;;11.60;99.90;;;;;;4974621;28;20203;-59
2023/07/21 04:44:48;;;;;;;12.00;7.77;;;11.70;99.90;;;;;;4973055;28;20266;-60
2023/07/21 04:47:13;;;;;;;17.17;8.53;;;11.80;99.90;;;;;;4974266;28;20228;-59
2023/07/21 04:49:39;;;;;;;16.13;8.43;;;11.80;99.90;;;;;;4973007;28;20180;-59
2023/07/21 04:52:05;;;;;;;13.20;8.07;;;11.90;99.90;;;;;;4974327;28;20187;-59
2023/07/21 04:54:31;;;;;;;13.40;7.73;;;12.00;99.90;;;;;;4974177;28;20199;-59
2023/07/21 04:56:56;;;;;;;14.90;8.27;;;12.00;99.90;;;;;;4974247;28;20176;-58
2023/07/21 04:59:22;;;;;;;13.80;8.07;;;12.10;99.90;;;;;;4974119;28;20600;-58
2023/07/21 05:01:48;;;;;;;14.03;8.10;;;12.10;99.90;;;;;;4973971;28;20687;-59
2023/07/21 05:04:19;;;;;;;15.73;8.33;;;;;;;;;;4973984;28;20734;-59
2023/07/21 05:06:47;;;;;;;15.77;8.03;;;12.20;99.90;;;;;;4974080;28;20548;-59
2023/07/21 05:09:14;;;;;;;13.83;7.90;;;12.20;99.90;;;;;;4973892;28;20312;-59
2023/07/21 05:11:40;;;;;;;12.27;7.60;;;12.10;99.90;;;;;;4974053;28;20182;-59
2023/07/21 05:14:06;;;;;;;19.13;8.17;;;12.20;99.90;;;;;;4973242;28;20627;-61
2023/07/21 05:16:35;;;;;;;15.43;8.20;;;12.30;99.90;;;;;;4971541;28;20200;-63
2023/07/21 05:19:00;;;;;;;39.80;9.50;;;12.30;99.90;;;;;;4970077;28;20200;-63
2023/07/21 05:21:26;;;;;;;17.63;8.03;;;12.30;99.90;;;;;;4972732;28;20199;-62
2023/07/21 05:23:52;;;;;;;14.77;8.00;;;12.40;99.90;;;;;;4954392;28;20213;-63
2023/07/21 05:26:18;;;;;;;13.82;8.23;;;12.40;99.90;;;;;;4954447;28;20628;-64
2023/07/21 05:28:43;;;;;;;27.63;8.20;;;12.40;99.90;;;;;;4954374;28;20204;-63
2023/07/21 05:31:11;;;;;;;18.33;8.53;;;12.40;99.90;;;;;;4954377;28;20215;-63
2023/07/21 05:33:37;;;;;;;17.00;8.60;;;12.50;99.90;;;;;;4953961;28;20180;-63
2023/07/21 05:36:07;;;;;;;18.27;9.13;;;12.50;99.90;;;;;;4973576;28;20534;-63
2023/07/21 05:38:34;;;;;;;15.27;8.43;;;12.60;99.90;;;;;;4973500;28;20254;-61
2023/07/21 05:41:00;;;;;;;19.73;8.10;;;12.60;99.90;;;;;;4973327;28;20176;-62
2023/07/21 05:43:26;;;;;;;15.10;8.70;;;12.60;99.90;;;;;;4973273;28;20220;-63
2023/07/21 05:45:52;;;;;;;20.37;9.00;;;;;;;;;;4973239;28;20203;-62
2023/07/21 05:48:17;;;;;;;16.10;8.83;;;12.80;99.90;;;;;;4972145;28;20269;-62
2023/07/21 05:50:43;;;;;;;25.30;9.00;;;12.90;99.90;;;;;;4953906;29;20268;-61
2023/07/21 05:53:09;;;;;;;17.15;7.90;;;13.00;99.90;;;;;;4953835;28;20223;-62
2023/07/21 05:55:34;;;;;;;21.27;8.27;;;13.00;99.90;;;;;;4953368;28;20188;-61
2023/07/21 05:58:00;;;;;;;15.52;7.40;;;13.10;99.90;;;;;;4960830;28;20192;-60
2023/07/21 06:00:26;;;;;;;20.98;9.05;;;13.30;99.90;;;;;;4973071;28;20176;-61
2023/07/21 06:02:52;;;;;;;14.32;8.13;;;13.40;99.90;;;;;;4962781;28;20247;-60
2023/07/21 06:05:18;;;;;;;14.43;8.80;;;13.70;99.90;;;;;;4953769;28;20709;-61
2023/07/21 06:07:45;;;;;;;14.65;8.50;;;13.70;99.90;;;;;;4953538;28;20186;-59
2023/07/21 06:10:12;;;;;;;16.60;8.20;;;13.80;99.90;;;;;;4954837;28;20180;-59
2023/07/21 06:12:38;;;;;;;21.70;9.07;;;14.00;99.90;;;;;;4972800;28;20178;-61
2023/07/21 06:15:06;;;;;;;16.75;8.27;;;14.10;99.90;;;;;;4972960;28;20227;-60
2023/07/21 06:17:32;;;;;;;18.30;8.15;;;14.20;99.90;;;;;;4972756;28;20273;-59
2023/07/21 06:19:57;;;;;;;20.05;8.93;;;14.30;99.90;;;;;;4972675;28;20276;-60
2023/07/21 06:22:23;;;;;;;23.58;8.45;;;14.30;99.90;;;;;;4972628;28;20183;-61
2023/07/21 06:24:49;;;;;;;27.08;9.23;;;14.40;99.90;;;;;;4972403;28;20212;-60
2023/07/21 06:27:14;;;;;;;22.92;8.25;;;14.40;99.90;;;;;;4972653;28;20172;-60
2023/07/21 06:29:41;;;;;;;22.15;8.77;;;;;;;;;;4972766;28;20187;-60
2023/07/21 06:32:07;;;;;;;18.45;8.77;;;14.40;99.90;;;;;;4972419;28;20168;-60
2023/07/21 06:34:33;;;;;;;21.27;8.38;;;14.50;99.90;;;;;;4972452;28;20639;-60
2023/07/21 06:36:58;;;;;;;17.98;8.30;;;14.60;99.90;;;;;;4972298;28;20255;-60
2023/07/21 06:39:24;;;;;;;16.27;8.35;;;14.60;99.90;;;;;;4972452;28;20175;-60
2023/07/21 06:41:51;;;;;;;18.13;8.45;;;14.80;99.90;;;;;;4971392;28;20172;-60
2023/07/21 06:44:20;;;;;;;16.30;9.02;;;14.80;99.90;;;;;;4972161;28;20207;-60
2023/07/21 06:46:47;;;;;;;16.88;8.10;;;14.80;99.90;;;;;;4972148;28;20223;-60
2023/07/21 06:49:14;;;;;;;17.17;8.27;;;15.00;99.90;;;;;;4972075;28;20168;-59
2023/07/21 06:51:40;;;;;;;17.50;8.68;;;15.00;99.90;;;;;;4970373;28;20183;-60
2023/07/21 06:54:07;;;;;;;13.88;9.27;;;15.10;99.90;;;;;;4970808;28;20667;-61
2023/07/21 06:56:32;;;;;;;18.33;8.75;;;15.20;99.90;;;;;;4964426;28;20176;-62
2023/07/21 06:58:58;;;;;;;18.67;8.65;;;15.20;99.90;;;;;;4972312;28;20183;-60
2023/07/21 07:01:23;;;;;;;21.45;9.18;;;15.20;99.90;;;;;;4970625;28;20251;-61
2023/07/21 07:03:49;;;;;;;16.33;9.15;;;15.40;99.90;;;;;;4971928;28;20231;-60
2023/07/21 07:06:15;;;;;;;18.33;9.68;;;15.40;99.90;;;;;;4971391;28;20180;-59
2023/07/21 07:08:40;;;;;;;20.58;9.45;;;15.50;99.90;;;;;;4971990;28;20200;-61
2023/07/21 07:11:06;;;;;;;21.55;9.75;;;15.60;99.90;;;;;;4971650;28;20168;-60
2023/07/21 07:13:32;;;;;;;21.05;10.13;;;15.70;99.90;;;;;;4971944;28;20559;-60
2023/07/21 07:15:57;;;;;;;16.33;9.07;;;15.80;99.90;;;;;;4971849;28;20230;-57
2023/07/21 07:18:26;;;;;;;25.98;8.90;;;15.80;99.90;;;;;;4971235;28;20517;-61
2023/07/21 07:20:53;;;;;;;19.83;9.43;;;15.90;99.90;;;;;;4971591;28;20175;-58
2023/07/21 07:23:20;;;;;;;18.00;9.05;;;16.00;99.90;;;;;;4971600;28;20215;-60
2023/07/21 07:25:53;;;;;;;17.35;8.55;;;16.30;99.90;;;;;;4970892;28;20185;-59
2023/07/21 07:28:20;;;;;;;19.05;9.15;;;16.40;99.90;;;;;;4971140;28;20730;-58
2023/07/21 07:30:47;;;;;;;15.95;8.63;;;16.40;99.90;;;;;;4971578;28;20172;-58
2023/07/21 07:33:17;;;;;;;19.00;8.65;;;16.40;99.90;;;;;;4971498;28;20176;-58
2023/07/21 07:35:53;;;;;;;15.95;9.13;;;16.40;99.90;;;;;;4971606;28;20180;-58
2023/07/21 07:38:21;;;;;;;15.77;9.02;;;16.60;99.90;;;;;;4975250;28;20639;-58
2023/07/21 07:40:47;;;;;;;17.02;8.75;;;16.60;99.90;;;;;;4975587;28;20210;-58
2023/07/21 07:43:13;;;;;;;18.40;9.07;;;16.80;99.90;;;;;;4975337;28;20235;-58
2023/07/21 07:45:39;;;;;;;23.20;9.45;;;17.00;99.90;;;;;;4975352;28;20168;-58
2023/07/21 07:48:07;;;;;;;16.27;9.95;;;17.10;99.90;;;;;;4973804;28;20219;-59
2023/07/21 07:50:36;;;;;;;20.42;9.40;;;17.10;99.90;;;;;;4971807;28;20191;-58
2023/07/21 07:53:02;;;;;;;17.88;9.45;;;17.50;99.90;;;;;;4974703;28;20199;-57
2023/07/21 07:55:28;;;;;;;18.20;8.77;;;17.20;99.90;;;;;;4975268;28;20172;-59
2023/07/21 07:57:55;;;;;;;16.38;8.40;;;17.20;99.90;;;;;;4973981;28;20218;-58
2023/07/21 08:00:21;;;;;;;17.77;8.18;;;17.30;99.90;;;;;;4975001;28;20179;-57
2023/07/21 08:02:47;;;;;;;23.23;8.50;;;17.30;99.90;;;;;;4974877;28;20176;-59
2023/07/21 08:05:13;;;;;;;17.60;7.90;;;17.40;99.90;;;;;;4974232;28;20841;-59
2023/07/21 08:07:38;;;;;;;13.35;6.95;;;17.40;99.90;;;;;;4974155;28;20211;-57
2023/07/21 08:10:05;;;;;;;19.30;6.90;;;17.30;99.90;;;;;;4974266;28;20171;-57
2023/07/21 08:12:30;;;;;;;13.25;6.75;;;17.20;99.90;;;;;;4975024;28;20191;-58
2023/07/21 08:14:56;;;;;;;11.02;6.28;;;17.20;99.90;;;;;;4974260;28;20172;-57
2023/07/21 08:17:23;;;;;;;11.45;6.47;;;17.30;99.90;;;;;;4973882;28;20202;-58
2023/07/21 08:19:48;;;;;;;13.98;6.82;;;17.40;99.90;;;;;;4973098;28;20263;-58
2023/07/21 08:22:15;;;;;;;12.88;6.45;;;17.30;99.90;;;;;;4974209;28;20286;-58
2023/07/21 08:24:40;;;;;;;10.88;6.40;;;17.50;99.90;;;;;;4969838;28;20220;-57
2023/07/21 08:27:07;;;;;;;9.50;6.05;;;17.50;99.90;;;;;;4959995;28;20202;-58
2023/07/21 08:29:34;;;;;;;12.35;7.05;;;17.50;99.90;;;;;;4958677;28;20204;-57
2023/07/21 08:31:59;;;;;;;12.48;6.57;;;18.90;99.90;;;;;;4973995;28;20168;-58
2023/07/21 08:34:25;;;;;;;11.27;5.63;;;17.80;99.90;;;;;;4967061;28;20198;-58
2023/07/21 08:36:51;;;;;;;10.57;5.85;;;18.10;99.90;;;;;;4973263;28;20191;-58
2023/07/21 08:39:17;;;;;;;10.48;5.72;;;18.10;70.10;;;;;;4974257;28;20678;-57
2023/07/21 08:41:48;;;;;;;9.90;5.72;;;18.40;70.80;;;;;;4971689;28;20180;-58
2023/07/21 08:44:15;;;;;;;14.32;5.75;;;18.40;1.00;;;;;;4972164;28;20302;-57
2023/07/21 08:46:41;;;;;;;11.50;5.55;;;18.50;1.00;;;;;;4965250;28;20228;-57
2023/07/21 08:49:08;;;;;;;9.35;5.70;;;18.80;1.00;;;;;;4961004;28;20177;-58
2023/07/21 08:51:35;;;;;;;9.25;5.15;;;19.30;99.90;;;;;;4973355;28;20255;-58
2023/07/21 08:54:01;;;;;;;9.98;5.57;;;19.70;1.00;;;;;;4971428;28;20266;-59
2023/07/21 08:56:27;;;;;;;6.20;4.05;;;20.40;1.00;;;;;;4973640;28;20207;-59
2023/07/21 08:58:53;;;;;;;7.18;3.63;;;20.90;1.00;;;;;;4968986;28;20180;-59
2023/07/21 09:01:18;;;;;;;6.60;3.50;;;21.20;1.00;;;;;;4973306;28;20560;-59
2023/07/21 09:03:46;;;;;;;5.32;3.22;;;21.20;1.00;;;;;;4968149;28;20259;-58
2023/07/21 09:06:13;;;;;;;11.73;3.53;;;21.60;99.90;;;;;;4971872;28;20195;-57
2023/07/21 09:08:39;;;;;;;5.63;2.85;;;21.10;3.50;;;;;;4967884;28;20342;-58
2023/07/21 09:11:05;;;;;;;6.70;2.80;;;21.30;99.90;;;;;;4972518;28;20263;-57
2023/07/21 09:13:32;;;;;;;8.73;2.92;;;21.40;99.90;;;;;;4968365;28;20274;-58
2023/07/21 09:16:05;;;;;;;4.40;2.72;;;21.00;99.90;;;;;;4967697;28;20540;-58
2023/07/21 09:18:43;;;;;;;7.03;2.67;;;21.20;99.90;;;;;;4970767;28;20184;-58
2023/07/21 09:21:19;;;;;;;4.65;2.53;;;20.80;1.00;;;;;;4969689;28;20183;-57
2023/07/21 09:23:46;;;;;;;5.20;2.67;;;21.00;1.00;;;;;;4967161;28;20231;-57
2023/07/21 09:26:12;;;;;;;3.03;2.30;;;21.10;1.00;;;;;;4968641;28;20184;-57
2023/07/21 09:28:43;;;;;;;6.07;2.33;;;21.60;1.00;;;;;;4970952;28;20585;-57
2023/07/21 09:31:09;;;;;;;6.72;4.43;;;21.20;1.00;;;;;;4968524;28;20337;-57
2023/07/21 09:33:39;;;;;;;4.18;2.28;;;21.40;99.90;;;;;;4970744;28;20706;-59
2023/07/21 09:36:05;;;;;;;4.53;2.17;;;21.40;1.00;;;;;;4969545;28;20223;-57
2023/07/21 09:38:32;;;;;;;3.55;1.98;;;21.60;1.00;;;;;;4968061;28;20216;-57
2023/07/21 09:41:02;;;;;;;4.65;2.80;;;21.10;1.00;;;;;;4968531;28;20675;-56
2023/07/21 09:43:30;;;;;;;4.68;2.60;;;21.20;1.00;;;;;;4971254;28;20225;-56
2023/07/21 09:46:02;;;;;;;4.03;2.33;;;21.50;99.90;;;;;;4968668;28;20561;-57
2023/07/21 09:48:29;;;;;;;4.15;2.65;;;21.60;1.00;;;;;;4967654;28;20215;-57
2023/07/21 09:51:01;;;;;;;5.20;2.97;;;21.40;1.00;;;;;;4968247;28;20612;-57
2023/07/21 09:53:40;;;;;;;7.35;3.22;;;22.00;1.00;;;;;;4971314;28;20172;-56
2023/07/21 09:56:07;;;;;;;7.95;3.17;;;21.80;99.90;;;;;;4969117;28;20231;-56
2023/07/21 09:58:42;;;;;;;5.25;2.88;;;22.00;99.90;;;;;;4967754;28;20183;-57
2023/07/21 10:01:09;;;;;;;11.85;3.15;;;21.30;1.00;;;;;;4967996;28;20188;-56
2023/07/21 10:03:36;;;;;;;6.68;3.20;;;21.60;1.00;;;;;;4967732;28;20298;-57
2023/07/21 10:06:03;;;;;;;5.07;2.17;;;22.10;1.00;;;;;;4968078;28;20192;-57
2023/07/21 10:08:33;;;;;;;3.88;2.08;;;23.00;1.00;;;;;;4971039;28;20186;-57
2023/07/21 10:10:59;;;;;;;3.47;2.00;;;22.10;1.00;;;;;;4968367;28;20211;-57
2023/07/21 10:13:27;;;;;;;3.05;1.80;;;21.90;1.00;;;;;;4968013;28;20176;-57
2023/07/21 10:15:58;;;;;;;3.60;1.65;;;22.30;1.00;;;;;;4967718;28;20196;-57
2023/07/21 10:18:24;;;;;;;3.33;1.80;;;22.60;1.00;;;;;;4971664;28;20230;-57
2023/07/21 10:20:56;;;;;;;3.45;2.00;;;22.40;99.90;;;;;;4967069;28;20186;-58
2023/07/21 10:23:26;;;;;;;5.38;1.98;;;22.50;99.90;;;;;;4972105;28;20295;-57
2023/07/21 10:25:51;;;;;;;6.65;2.22;;;22.30;99.90;;;;;;4966888;28;20666;-57
2023/07/21 10:28:44;;;;;;;3.30;1.63;;;22.10;1.00;;;;;;4967814;28;20175;-56
2023/07/21 10:31:25;;;;;;;2.42;1.40;;;21.60;99.90;;;;;;4968656;28;20199;-57
2023/07/21 10:34:07;;;;;;;3.42;1.60;;;21.00;99.90;;;;;;4966866;28;20207;-56
2023/07/21 10:36:39;;;;;;;2.47;1.40;;;21.10;99.90;;;;;;4962752;28;20199;-56
2023/07/21 10:39:10;;;;;;;3.03;1.10;;;20.90;1.00;;;;;;4967417;28;20173;-56
2023/07/21 10:41:39;;;;;;;4.18;1.60;;;21.00;1.00;;;;;;4963575;28;20200;-58
2023/07/21 10:44:07;;;;;;;2.33;1.10;;;21.00;38.50;;;;;;4967292;28;20238;-57
2023/07/21 10:46:40;;;;;;;4.13;1.30;;;20.90;1.00;;;;;;4962700;28;20216;-57
2023/07/21 10:49:09;;;;;;;4.88;1.50;;;21.00;99.90;;;;;;4967205;28;20212;-57
2023/07/21 10:51:37;;;;;;;2.72;1.45;;;21.40;30.20;;;;;;4962633;28;20175;-57
2023/07/21 10:54:04;;;;;;;4.60;1.70;;;21.50;23.40;;;;;;4967981;28;20181;-57
2023/07/21 10:56:29;;;;;;;3.25;1.45;;;21.40;99.90;;;;;;4970414;28;20267;-57
2023/07/21 10:58:55;;;;;;;3.83;1.20;;;21.20;99.90;;;;;;4966821;28;20272;-57
2023/07/21 11:01:22;;;;;;;4.30;1.25;;;21.00;1.00;;;;;;4967533;28;20639;-56
2023/07/21 11:03:48;;;;;;;2.67;1.33;;;21.40;99.90;;;;;;4969639;28;20215;-56
2023/07/21 11:06:17;;;;;;;4.80;1.70;;;20.80;1.00;;;;;;4968286;28;20186;-57
2023/07/21 11:08:43;;;;;;;3.00;1.83;;;20.50;1.00;;;;;;4966888;28;20262;-57
2023/07/21 11:11:10;;;;;;;3.45;1.67;;;18.80;99.90;;;;;;4967067;28;20192;-56
2023/07/21 11:13:41;;;;;;;3.42;2.08;;;20.40;1.00;;;;;;4966927;28;20175;-57
2023/07/21 11:16:09;;;;;;;3.33;2.00;;;20.40;99.90;;;;;;4967019;28;20678;-57
2023/07/21 11:18:34;;;;;;;4.55;1.40;;;20.50;1.00;;;;;;4970781;28;20191;-57
2023/07/21 11:21:00;;;;;;;6.78;1.63;;;20.60;1.00;;;;;;4966394;28;20530;-56
2023/07/21 11:23:31;;;;;;;7.65;1.80;;;20.60;1.00;;;;;;4971112;28;20601;-56
2023/07/21 11:26:09;;;;;;;3.38;1.85;;;20.80;1.00;;;;;;4965512;28;20253;-57
2023/07/21 11:28:39;;;;;;;5.45;1.80;;;20.80;1.00;;;;;;4969436;28;20271;-56
2023/07/21 11:31:15;;;;;;;3.10;1.80;;;20.40;1.00;;;;;;4967004;28;20205;-57
2023/07/21 11:33:49;;;;;;;5.00;1.95;;;20.00;1.00;;;;;;4969955;28;20716;-58
2023/07/21 11:36:19;;;;;;;3.33;1.60;;;19.70;1.00;;;;;;4968563;28;20250;-57
2023/07/21 11:39:10;;;;;;;4.90;1.90;;;19.40;1.00;;;;;;4966864;28;20187;-56
2023/07/21 11:41:43;;;;;;;3.28;1.67;;;19.10;1.00;;;;;;4970348;28;20188;-57
2023/07/21 11:44:11;;;;;;;6.25;2.05;;;19.00;69.00;;;;;;4966291;28;20223;-57
2023/07/21 11:46:38;;;;;;;3.88;1.80;;;18.80;1.00;;;;;;4967081;28;20311;-57
2023/07/21 11:49:10;;;;;;;4.82;1.85;;;18.70;1.00;;;;;;4967934;28;20626;-56
2023/07/21 11:51:52;;;;;;;8.43;1.95;;;18.80;1.00;;;;;;4970237;28;20278;-57
2023/07/21 11:54:22;;;;;;;9.07;2.05;;;18.70;1.00;;;;;;4966080;28;20191;-58
2023/07/21 11:56:49;;;;;;;7.10;1.90;;;18.60;1.00;;;;;;4967003;28;20204;-57
2023/07/21 11:59:16;;;;;;;4.93;1.73;;;18.70;1.00;;;;;;4969285;28;20238;-57
2023/07/21 12:01:42;;;;;;;4.70;1.95;;;18.70;1.00;;;;;;4961955;28;20180;-57
2023/07/21 12:04:10;;;;;;;2.65;1.70;;;19.00;1.00;;;;;;4966114;28;20239;-57
2023/07/21 12:06:36;;;;;;;9.43;1.92;;;20.10;99.90;;;;;;4966448;28;20215;-58
2023/07/21 12:09:05;;;;;;;9.80;1.80;;;20.30;1.00;;;;;;4964834;28;20231;-57
2023/07/21 12:11:32;;;;;;;4.38;1.60;;;20.10;1.00;;;;;;4966931;28;20208;-58
2023/07/21 12:13:58;;;;;;;8.02;1.75;;;19.50;1.00;;;;;;4968522;28;20184;-57
2023/07/21 12:16:24;;;;;;;6.80;1.83;;;19.00;1.00;;;;;;4968280;28;20188;-56
2023/07/21 12:18:49;;;;;;;4.70;1.70;;;18.90;99.90;;;;;;4966005;28;20678;-57
2023/07/21 12:21:17;;;;;;;6.03;1.60;;;18.80;1.00;;;;;;4966561;28;20172;-58
2023/07/21 12:23:43;;;;;;;9.73;1.80;;;18.50;99.90;;;;;;4970493;28;20219;-57
2023/07/21 12:26:09;;;;;;;3.47;1.65;;;18.50;1.00;;;;;;4969319;28;20195;-57
2023/07/21 12:28:35;;;;;;;7.57;1.52;;;18.60;99.90;;;;;;4973868;28;20655;-57
2023/07/21 12:31:01;;;;;;;9.35;1.80;;;18.50;1.00;;;;;;4969618;28;20180;-57
2023/07/21 12:33:28;;;;;;;4.68;1.50;;;18.60;24.60;;;;;;4970162;28;20551;-56
2023/07/21 12:35:54;;;;;;;8.40;1.60;;;18.90;1.00;;;;;;4969059;28;20195;-57
2023/07/21 12:38:20;;;;;;;6.63;2.22;;;18.90;1.00;;;;;;4972899;28;20172;-57
2023/07/21 12:40:46;;;;;;;6.13;1.42;;;19.30;51.80;;;;;;4969671;28;20266;-57
2023/07/21 12:43:12;;;;;;;2.28;1.38;;;19.70;1.00;;;;;;4972148;28;20259;-57
2023/07/21 12:45:39;;;;;;;7.57;1.50;;;20.00;1.00;;;;;;4968984;28;20682;-57
2023/07/21 12:48:05;;;;;;;3.90;1.60;;;20.00;1.00;;;;;;4969311;28;20251;-58